createdAt,value
2017-09-18T00:00:15.103Z,12.93
2017-09-18T00:01:15.517Z,13.01
2017-09-18T00:02:15.952Z,12.97
2017-09-18T00:03:16.380Z,12.87
2017-09-18T00:04:16.811Z,12.97
2017-09-18T00:05:38.400Z,13.00
2017-09-18T00:06:17.675Z,13.16
2017-09-18T00:07:18.096Z,13.11
2017-09-18T00:08:18.525Z,12.95
2017-09-18T00:09:18.959Z,12.91
2017-09-18T00:10:19.385Z,12.85
2017-09-18T00:11:40.979Z,12.87
2017-09-18T00:12:20.246Z,12.75
2017-09-18T00:13:20.677Z,12.75
2017-09-18T00:14:21.108Z,12.68
2017-09-18T00:15:21.556Z,12.68
2017-09-18T00:16:21.974Z,12.68
2017-09-18T00:17:43.561Z,12.68
2017-09-18T00:18:22.828Z,12.65
2017-09-18T00:19:23.264Z,12.68
2017-09-18T00:20:23.686Z,12.68
2017-09-18T00:21:24.116Z,12.65
2017-09-18T00:22:24.547Z,12.75
2017-09-18T00:23:46.141Z,12.91
2017-09-18T00:24:25.408Z,12.97
2017-09-18T00:25:25.845Z,13.03
2017-09-18T00:26:26.267Z,13.08
2017-09-18T00:27:26.703Z,13.13
2017-09-18T00:28:27.126Z,13.11
2017-09-18T00:29:48.727Z,13.05
2017-09-18T00:30:27.984Z,13.12
2017-09-18T00:31:28.422Z,13.16
2017-09-18T00:32:28.857Z,13.04
2017-09-18T00:33:29.279Z,13.04
2017-09-18T00:34:29.721Z,13.01
2017-09-18T00:35:51.305Z,13.18
2017-09-18T00:36:30.564Z,13.15
2017-09-18T00:37:30.998Z,13.15
2017-09-18T00:38:31.436Z,13.19
2017-09-18T00:39:31.854Z,13.15
2017-09-18T00:40:32.290Z,13.16
2017-09-18T00:41:53.881Z,13.08
2017-09-18T00:42:33.158Z,13.05
2017-09-18T00:43:33.575Z,13.08
2017-09-18T00:44:34.006Z,13.12
2017-09-18T00:45:34.433Z,13.08
2017-09-18T00:46:34.869Z,13.04
2017-09-18T00:47:56.461Z,13.05
2017-09-18T00:48:35.726Z,13.11
2017-09-18T00:49:36.167Z,13.05
2017-09-18T00:50:36.591Z,13.04
2017-09-18T00:51:37.014Z,13.01
2017-09-18T00:52:37.447Z,12.93
2017-09-18T00:53:59.035Z,12.95
2017-09-18T00:54:38.308Z,12.94
2017-09-18T00:55:38.733Z,12.94
2017-09-18T00:56:39.164Z,12.95
2017-09-18T00:57:39.592Z,12.93
2017-09-18T00:58:40.024Z,12.79
2017-09-18T01:00:01.611Z,12.87
2017-09-18T01:00:40.896Z,12.82
2017-09-18T01:01:41.313Z,12.85
2017-09-18T01:02:41.774Z,12.70
2017-09-18T01:03:42.172Z,12.72
2017-09-18T01:04:42.624Z,12.72
2017-09-18T01:06:04.190Z,12.83
2017-09-18T01:06:43.466Z,12.86
2017-09-18T01:07:43.900Z,12.86
2017-09-18T01:08:44.327Z,12.61
2017-09-18T01:09:44.762Z,12.73
2017-09-18T01:10:45.180Z,12.78
2017-09-18T01:12:06.785Z,12.61
2017-09-18T01:12:46.046Z,12.64
2017-09-18T01:13:46.474Z,12.64
2017-09-18T01:14:46.905Z,12.61
2017-09-18T01:15:47.326Z,12.62
2017-09-18T01:16:47.753Z,12.46
2017-09-18T01:18:09.353Z,12.55
2017-09-18T01:18:48.616Z,12.62
2017-09-18T01:19:49.041Z,12.60
2017-09-18T01:20:49.471Z,12.65
2017-09-18T01:21:49.903Z,12.60
2017-09-18T01:22:50.332Z,12.53
2017-09-18T01:24:11.942Z,12.46
2017-09-18T01:24:51.188Z,12.46
2017-09-18T01:25:51.624Z,12.37
2017-09-18T01:26:52.055Z,12.42
2017-09-18T01:27:52.494Z,12.46
2017-09-18T01:28:52.918Z,12.43
2017-09-18T01:30:14.499Z,12.39
2017-09-18T01:30:53.803Z,12.35
2017-09-18T01:31:54.198Z,12.32
2017-09-18T01:32:54.627Z,12.31
2017-09-18T01:33:55.059Z,12.28
2017-09-18T01:34:55.485Z,12.25
2017-09-18T01:36:17.077Z,12.29
2017-09-18T01:36:56.349Z,12.22
2017-09-18T01:37:56.779Z,12.25
2017-09-18T01:38:57.205Z,12.25
2017-09-18T01:39:57.629Z,12.29
2017-09-18T01:40:58.058Z,12.36
2017-09-18T01:42:19.651Z,12.29
2017-09-18T01:42:58.921Z,12.37
2017-09-18T01:43:59.351Z,12.24
2017-09-18T01:44:59.782Z,12.21
2017-09-18T01:46:00.210Z,12.25
2017-09-18T01:47:00.636Z,12.28
2017-09-18T01:48:22.231Z,12.28
2017-09-18T01:49:01.500Z,12.35
2017-09-18T01:50:01.925Z,12.22
2017-09-18T01:51:02.353Z,12.31
2017-09-18T01:52:02.778Z,12.25
2017-09-18T01:53:03.213Z,12.32
2017-09-18T01:54:24.811Z,12.35
2017-09-18T01:55:04.074Z,12.35
2017-09-18T01:56:04.503Z,12.28
2017-09-18T01:57:04.928Z,12.20
2017-09-18T01:58:05.361Z,12.27
2017-09-18T01:59:05.783Z,12.27
2017-09-18T02:00:27.374Z,12.28
2017-09-18T02:01:06.646Z,12.32
2017-09-18T02:02:07.072Z,12.37
2017-09-18T02:03:07.505Z,12.39
2017-09-18T02:04:07.927Z,12.37
2017-09-18T02:05:08.359Z,12.29
2017-09-18T02:06:29.953Z,12.37
2017-09-18T02:07:09.213Z,12.36
2017-09-18T02:08:09.648Z,12.36
2017-09-18T02:09:10.078Z,12.35
2017-09-18T02:10:10.507Z,12.37
2017-09-18T02:11:10.937Z,12.39
2017-09-18T02:12:32.522Z,12.37
2017-09-18T02:13:11.790Z,12.39
2017-09-18T02:14:12.232Z,12.39
2017-09-18T02:15:12.648Z,12.39
2017-09-18T02:16:13.083Z,12.40
2017-09-18T02:17:13.509Z,12.36
2017-09-18T02:18:35.099Z,12.29
2017-09-18T02:19:14.367Z,12.36
2017-09-18T02:20:14.798Z,12.49
2017-09-18T02:21:15.222Z,12.39
2017-09-18T02:22:15.654Z,12.40
2017-09-18T02:23:16.087Z,12.37
2017-09-18T02:24:37.696Z,12.35
2017-09-18T02:25:16.944Z,12.37
2017-09-18T02:26:17.376Z,12.43
2017-09-18T02:27:17.811Z,12.47
2017-09-18T02:28:18.232Z,12.57
2017-09-18T02:29:18.666Z,12.62
2017-09-18T02:30:40.250Z,12.61
2017-09-18T02:31:19.531Z,12.61
2017-09-18T02:32:19.946Z,12.57
2017-09-18T02:33:20.376Z,12.57
2017-09-18T02:34:20.818Z,12.58
2017-09-18T02:35:21.239Z,12.61
2017-09-18T02:36:42.825Z,12.57
2017-09-18T02:37:22.097Z,12.64
2017-09-18T02:38:22.523Z,12.58
2017-09-18T02:39:22.965Z,12.72
2017-09-18T02:40:23.382Z,12.62
2017-09-18T02:41:23.811Z,12.53
2017-09-18T02:42:45.410Z,12.55
2017-09-18T02:43:24.669Z,12.43
2017-09-18T02:44:25.107Z,12.53
2017-09-18T02:45:25.530Z,12.43
2017-09-18T02:46:25.956Z,12.54
2017-09-18T02:47:26.401Z,12.49
2017-09-18T02:48:47.977Z,12.43
2017-09-18T02:49:27.250Z,12.49
2017-09-18T02:50:27.678Z,12.37
2017-09-18T02:51:28.120Z,12.39
2017-09-18T02:52:28.536Z,12.46
2017-09-18T02:53:28.964Z,12.47
2017-09-18T02:54:50.571Z,12.37
2017-09-18T02:55:29.828Z,12.39
2017-09-18T02:56:30.254Z,12.37
2017-09-18T02:57:30.685Z,12.35
2017-09-18T02:58:31.123Z,12.37
2017-09-18T02:59:31.543Z,12.37
2017-09-18T03:00:53.131Z,12.28
2017-09-18T03:01:32.395Z,12.37
2017-09-18T03:02:32.834Z,12.32
2017-09-18T03:03:33.261Z,12.29
2017-09-18T03:04:33.689Z,12.22
2017-09-18T03:05:34.126Z,12.32
2017-09-18T03:06:55.796Z,12.32
2017-09-18T03:07:34.978Z,12.32
2017-09-18T03:08:35.414Z,12.27
2017-09-18T03:09:35.832Z,12.29
2017-09-18T03:10:36.267Z,12.35
2017-09-18T03:11:36.696Z,12.39
2017-09-18T03:12:58.299Z,12.28
2017-09-18T03:13:37.551Z,12.25
2017-09-18T03:14:37.981Z,12.27
2017-09-18T03:15:38.407Z,12.20
2017-09-18T03:16:38.837Z,12.29
2017-09-18T03:17:39.265Z,12.20
2017-09-18T03:19:00.859Z,12.20
2017-09-18T03:19:40.122Z,12.13
2017-09-18T03:20:40.556Z,12.17
2017-09-18T03:21:41.001Z,12.06
2017-09-18T03:22:41.413Z,12.09
2017-09-18T03:23:41.848Z,12.02
2017-09-18T03:25:03.440Z,11.95
2017-09-18T03:25:42.703Z,12.03
2017-09-18T03:26:43.149Z,12.06
2017-09-18T03:27:43.567Z,11.99
2017-09-18T03:28:43.992Z,12.07
2017-09-18T03:29:44.417Z,12.02
2017-09-18T03:31:06.005Z,12.06
2017-09-18T03:31:45.272Z,12.03
2017-09-18T03:32:45.717Z,12.03
2017-09-18T03:33:46.138Z,12.04
2017-09-18T03:34:46.567Z,11.97
2017-09-18T03:35:46.992Z,12.00
2017-09-18T03:37:08.584Z,11.88
2017-09-18T03:37:47.849Z,11.90
2017-09-18T03:38:48.285Z,11.90
2017-09-18T03:39:48.703Z,11.80
2017-09-18T03:40:49.140Z,11.81
2017-09-18T03:41:49.576Z,11.77
2017-09-18T03:43:11.158Z,11.77
2017-09-18T03:43:50.423Z,11.73
2017-09-18T03:44:50.857Z,11.66
2017-09-18T03:45:51.279Z,11.80
2017-09-18T03:46:51.711Z,11.75
2017-09-18T03:47:52.147Z,11.81
2017-09-18T03:49:13.737Z,11.81
2017-09-18T03:49:53.039Z,11.77
2017-09-18T03:50:53.438Z,11.83
2017-09-18T03:51:53.860Z,11.78
2017-09-18T03:52:54.287Z,11.87
2017-09-18T03:53:54.723Z,11.78
2017-09-18T03:55:16.306Z,11.75
2017-09-18T03:55:55.571Z,11.84
2017-09-18T03:56:55.996Z,11.75
2017-09-18T03:57:56.425Z,11.77
2017-09-18T03:58:56.852Z,11.86
2017-09-18T03:59:57.288Z,11.84
2017-09-18T04:01:18.868Z,11.83
2017-09-18T04:01:58.139Z,11.77
2017-09-18T04:02:58.572Z,11.86
2017-09-18T04:03:59.000Z,11.88
2017-09-18T04:04:59.425Z,11.84
2017-09-18T04:05:59.855Z,11.84
2017-09-18T04:07:21.448Z,11.83
2017-09-18T04:08:00.710Z,11.84
2017-09-18T04:09:01.139Z,11.81
2017-09-18T04:10:01.579Z,11.83
2017-09-18T04:11:02.008Z,11.83
2017-09-18T04:12:02.428Z,11.83
2017-09-18T04:13:24.011Z,11.83
2017-09-18T04:14:03.290Z,11.88
2017-09-18T04:15:03.735Z,11.87
2017-09-18T04:16:04.138Z,11.91
2017-09-18T04:17:04.571Z,11.88
2017-09-18T04:18:05.007Z,11.86
2017-09-18T04:19:26.592Z,11.88
2017-09-18T04:20:05.864Z,11.86
2017-09-18T04:21:06.290Z,11.87
2017-09-18T04:22:06.720Z,11.95
2017-09-18T04:23:07.144Z,11.91
2017-09-18T04:24:07.575Z,11.83
2017-09-18T04:25:29.163Z,11.86
2017-09-18T04:26:08.434Z,12.00
2017-09-18T04:27:08.864Z,11.99
2017-09-18T04:28:09.319Z,11.95
2017-09-18T04:29:09.722Z,11.91
2017-09-18T04:30:10.156Z,12.00
2017-09-18T04:31:31.743Z,12.03
2017-09-18T04:32:11.014Z,11.81
2017-09-18T04:33:11.447Z,11.81
2017-09-18T04:34:11.860Z,11.68
2017-09-18T04:35:12.299Z,11.55
2017-09-18T04:36:12.716Z,11.59
2017-09-18T04:37:34.309Z,11.57
2017-09-18T04:38:13.579Z,11.65
2017-09-18T04:39:14.006Z,11.65
2017-09-18T04:40:14.433Z,11.59
2017-09-18T04:41:14.880Z,11.57
2017-09-18T04:42:15.295Z,11.63
2017-09-18T04:43:36.884Z,11.60
2017-09-18T04:44:16.156Z,11.50
2017-09-18T04:45:16.580Z,11.47
2017-09-18T04:46:17.009Z,11.59
2017-09-18T04:47:17.434Z,11.48
2017-09-18T04:48:17.867Z,11.52
2017-09-18T04:49:39.474Z,11.43
2017-09-18T04:50:18.721Z,11.48
2017-09-18T04:51:19.151Z,11.41
2017-09-18T04:52:19.607Z,11.54
2017-09-18T04:53:20.006Z,11.32
2017-09-18T04:54:20.443Z,11.36
2017-09-18T04:55:42.027Z,11.29
2017-09-18T04:56:21.326Z,11.44
2017-09-18T04:57:21.730Z,11.44
2017-09-18T04:58:22.148Z,11.44
2017-09-18T04:59:22.592Z,11.40
2017-09-18T05:00:23.037Z,11.43
2017-09-18T05:01:44.608Z,11.40
2017-09-18T05:02:23.900Z,11.48
2017-09-18T05:03:24.290Z,11.50
2017-09-18T05:04:24.729Z,11.48
2017-09-18T05:05:25.145Z,11.50
2017-09-18T05:06:25.581Z,11.50
2017-09-18T05:07:47.162Z,11.51
2017-09-18T05:08:26.446Z,11.54
2017-09-18T05:09:26.913Z,11.66
2017-09-18T05:10:27.309Z,11.52
2017-09-18T05:11:27.731Z,11.48
2017-09-18T05:12:28.148Z,11.43
2017-09-18T05:13:49.738Z,11.50
2017-09-18T05:14:29.041Z,11.54
2017-09-18T05:15:29.434Z,11.54
2017-09-18T05:16:29.897Z,11.57
2017-09-18T05:17:30.298Z,11.59
2017-09-18T05:18:30.718Z,11.52
2017-09-18T05:19:52.312Z,11.55
2017-09-18T05:20:31.577Z,11.52
2017-09-18T05:21:32.005Z,11.54
2017-09-18T05:22:32.436Z,11.51
2017-09-18T05:23:32.871Z,11.59
2017-09-18T05:24:33.298Z,11.57
2017-09-18T05:25:54.879Z,11.55
2017-09-18T05:26:34.158Z,11.55
2017-09-18T05:27:34.577Z,11.62
2017-09-18T05:28:35.015Z,11.57
2017-09-18T05:29:35.431Z,11.50
2017-09-18T05:30:35.866Z,11.59
2017-09-18T05:31:57.453Z,11.52
2017-09-18T05:32:36.719Z,11.54
2017-09-18T05:33:37.161Z,11.50
2017-09-18T05:34:37.601Z,11.57
2017-09-18T05:35:38.007Z,11.59
2017-09-18T05:36:38.440Z,11.51
2017-09-18T05:38:00.153Z,11.52
2017-09-18T05:38:39.313Z,11.55
2017-09-18T05:39:39.803Z,11.66
2017-09-18T05:40:40.154Z,11.72
2017-09-18T05:41:40.586Z,11.73
2017-09-18T05:42:41.019Z,11.75
2017-09-18T05:44:02.598Z,11.70
2017-09-18T05:44:41.872Z,11.68
2017-09-18T05:45:42.291Z,11.73
2017-09-18T05:46:42.728Z,11.72
2017-09-18T05:47:43.152Z,11.81
2017-09-18T05:48:43.582Z,11.69
2017-09-18T05:50:05.175Z,11.54
2017-09-18T05:50:44.438Z,11.69
2017-09-18T05:51:44.881Z,11.70
2017-09-18T05:52:45.298Z,11.81
2017-09-18T05:53:45.726Z,11.77
2017-09-18T05:54:46.185Z,11.88
2017-09-18T05:56:07.740Z,11.69
2017-09-18T05:56:47.013Z,11.54
2017-09-18T05:57:47.446Z,11.54
2017-09-18T05:58:47.874Z,11.68
2017-09-18T05:59:48.304Z,11.73
2017-09-18T06:00:48.730Z,11.73
2017-09-18T06:02:10.323Z,11.84
2017-09-18T06:02:49.585Z,11.86
2017-09-18T06:03:50.013Z,11.88
2017-09-18T06:04:50.445Z,11.90
2017-09-18T06:05:50.887Z,11.87
2017-09-18T06:06:51.298Z,11.84
2017-09-18T06:08:12.896Z,11.87
2017-09-18T06:08:52.165Z,11.86
2017-09-18T06:09:52.586Z,11.88
2017-09-18T06:10:53.019Z,11.83
2017-09-18T06:11:53.449Z,11.90
2017-09-18T06:12:53.876Z,12.02
2017-09-18T06:14:15.467Z,12.13
2017-09-18T06:14:54.740Z,12.00
2017-09-18T06:15:55.169Z,11.99
2017-09-18T06:16:55.593Z,12.03
2017-09-18T06:17:56.024Z,12.21
2017-09-18T06:18:56.446Z,12.25
2017-09-18T06:20:18.047Z,12.24
2017-09-18T06:20:57.316Z,12.28
2017-09-18T06:21:57.751Z,12.39
2017-09-18T06:22:58.166Z,12.46
2017-09-18T06:23:58.604Z,12.45
2017-09-18T06:24:59.027Z,12.39
2017-09-18T06:26:20.613Z,12.39
2017-09-18T06:26:59.880Z,12.53
2017-09-18T06:28:00.317Z,12.46
2017-09-18T06:29:00.741Z,12.49
2017-09-18T06:30:01.193Z,12.46
2017-09-18T06:31:01.629Z,12.43
2017-09-18T06:32:23.198Z,12.45
2017-09-18T06:33:02.464Z,12.46
2017-09-18T06:34:02.892Z,12.47
2017-09-18T06:35:03.323Z,12.64
2017-09-18T06:36:03.763Z,12.62
2017-09-18T06:37:04.186Z,12.67
2017-09-18T06:38:25.768Z,12.62
2017-09-18T06:39:05.041Z,12.46
2017-09-18T06:40:05.472Z,12.45
2017-09-18T06:41:05.897Z,12.42
2017-09-18T06:42:06.332Z,12.49
2017-09-18T06:43:06.756Z,12.45
2017-09-18T06:44:28.363Z,12.49
2017-09-18T06:45:07.624Z,12.53
2017-09-18T06:46:08.051Z,12.55
2017-09-18T06:47:08.496Z,12.68
2017-09-18T06:48:08.922Z,12.55
2017-09-18T06:49:09.406Z,12.68
2017-09-18T06:50:30.934Z,12.67
2017-09-18T06:51:10.195Z,12.70
2017-09-18T06:52:10.628Z,12.72
2017-09-18T06:53:11.059Z,12.75
2017-09-18T06:54:11.485Z,12.73
2017-09-18T06:55:12.010Z,12.67
2017-09-18T06:56:33.508Z,12.73
2017-09-18T06:57:12.789Z,12.70
2017-09-18T06:58:13.202Z,12.80
2017-09-18T06:59:13.630Z,12.82
2017-09-18T07:00:14.108Z,12.82
2017-09-18T07:01:14.495Z,12.80
2017-09-18T07:02:36.087Z,12.82
2017-09-18T07:03:15.350Z,12.76
2017-09-18T07:04:15.802Z,12.86
2017-09-18T07:05:16.210Z,12.83
2017-09-18T07:06:16.641Z,12.90
2017-09-18T07:07:17.073Z,12.94
2017-09-18T07:08:38.665Z,12.93
2017-09-18T07:09:17.929Z,13.13
2017-09-18T07:10:18.359Z,13.12
2017-09-18T07:11:18.792Z,13.09
2017-09-18T07:12:19.231Z,12.98
2017-09-18T07:13:19.649Z,13.18
2017-09-18T07:14:41.251Z,13.09
2017-09-18T07:15:20.510Z,13.16
2017-09-18T07:16:20.939Z,13.28
2017-09-18T07:17:21.373Z,13.19
2017-09-18T07:18:21.807Z,13.37
2017-09-18T07:19:22.230Z,13.37
2017-09-18T07:20:43.817Z,13.35
2017-09-18T07:21:23.093Z,13.35
2017-09-18T07:22:23.520Z,13.31
2017-09-18T07:23:23.967Z,13.39
2017-09-18T07:24:24.382Z,13.44
2017-09-18T07:25:24.816Z,13.41
2017-09-18T07:26:46.400Z,13.38
2017-09-18T07:27:25.678Z,13.39
2017-09-18T07:28:26.139Z,13.39
2017-09-18T07:29:26.532Z,13.46
2017-09-18T07:30:26.975Z,13.46
2017-09-18T07:31:27.406Z,13.52
2017-09-18T07:32:48.984Z,13.70
2017-09-18T07:33:28.262Z,13.75
2017-09-18T07:34:28.712Z,13.70
2017-09-18T07:35:29.126Z,13.75
2017-09-18T07:36:29.553Z,13.83
2017-09-18T07:37:29.985Z,13.90
2017-09-18T07:38:51.582Z,13.83
2017-09-18T07:39:30.846Z,13.78
2017-09-18T07:40:31.282Z,13.79
2017-09-18T07:41:31.703Z,13.90
2017-09-18T07:42:32.138Z,14.08
2017-09-18T07:43:32.567Z,14.10
2017-09-18T07:44:54.166Z,14.35
2017-09-18T07:45:33.434Z,14.40
2017-09-18T07:46:33.866Z,14.59
2017-09-18T07:47:34.299Z,14.65
2017-09-18T07:48:34.755Z,14.88
2017-09-18T07:49:35.166Z,15.22
2017-09-18T07:50:56.762Z,15.39
2017-09-18T07:51:36.027Z,15.77
2017-09-18T07:52:36.468Z,16.02
2017-09-18T07:53:36.917Z,16.02
2017-09-18T07:54:37.342Z,16.51
2017-09-18T07:55:37.782Z,16.87
2017-09-18T07:56:59.380Z,17.85
2017-09-18T07:57:38.664Z,18.74
2017-09-18T07:58:39.100Z,19.12
2017-09-18T07:59:39.550Z,19.76
2017-09-18T08:00:39.985Z,20.59
2017-09-18T08:01:40.427Z,21.46
2017-09-18T08:03:02.040Z,19.00
2017-09-18T08:03:41.314Z,19.92
2017-09-18T08:04:41.757Z,18.65
2017-09-18T08:05:42.212Z,19.08
2017-09-18T08:06:42.658Z,18.86
2017-09-18T08:07:43.103Z,17.89
2017-09-18T08:09:04.705Z,17.38
2017-09-18T08:09:44.005Z,17.54
2017-09-18T08:10:44.442Z,17.57
2017-09-18T08:11:44.889Z,18.81
2017-09-18T08:12:45.333Z,18.59
2017-09-18T08:13:45.783Z,18.22
2017-09-18T08:15:07.401Z,17.87
2017-09-18T08:15:46.708Z,17.48
2017-09-18T08:16:47.136Z,18.07
2017-09-18T08:17:47.588Z,19.82
2017-09-18T08:18:48.026Z,19.48
2017-09-18T08:19:48.482Z,18.70
2017-09-18T08:21:10.096Z,18.95
2017-09-18T08:21:49.377Z,20.18
2017-09-18T08:22:49.828Z,20.07
2017-09-18T08:23:50.291Z,19.94
2017-09-18T08:24:50.746Z,20.62
2017-09-18T08:25:51.183Z,21.66
2017-09-18T08:27:12.810Z,22.53
2017-09-18T08:27:52.090Z,23.36
2017-09-18T08:28:52.541Z,23.87
2017-09-18T08:29:52.994Z,24.70
2017-09-18T08:30:53.448Z,25.40
2017-09-18T08:31:53.897Z,25.29
2017-09-18T08:33:15.521Z,25.93
2017-09-18T08:33:54.813Z,25.53
2017-09-18T08:34:55.255Z,26.52
2017-09-18T08:35:55.768Z,26.97
2017-09-18T08:36:56.170Z,27.67
2017-09-18T08:37:56.620Z,24.89
2017-09-18T08:39:18.251Z,26.10
2017-09-18T08:39:57.545Z,26.56
2017-09-18T08:40:57.989Z,26.95
2017-09-18T08:41:58.451Z,27.35
2017-09-18T08:42:58.901Z,23.81
2017-09-18T08:43:59.356Z,23.12
2017-09-18T08:45:21.055Z,21.55
2017-09-18T08:46:00.352Z,21.24
2017-09-18T08:47:00.777Z,23.08
2017-09-18T08:48:01.179Z,22.98
2017-09-18T08:49:01.641Z,24.33
2017-09-18T08:50:02.102Z,25.95
2017-09-18T08:51:23.728Z,23.65
2017-09-18T08:52:03.032Z,23.84
2017-09-18T08:53:03.467Z,23.10
2017-09-18T08:54:03.922Z,23.34
2017-09-18T08:55:04.390Z,22.99
2017-09-18T08:56:04.841Z,23.74
2017-09-18T08:57:26.469Z,24.05
2017-09-18T08:58:05.764Z,24.01
2017-09-18T08:59:06.228Z,25.18
2017-09-18T09:00:06.678Z,24.65
2017-09-18T09:01:07.135Z,23.24
2017-09-18T09:02:07.599Z,24.33
2017-09-18T09:03:29.225Z,21.61
2017-09-18T09:04:08.512Z,20.47
2017-09-18T09:05:08.977Z,20.13
2017-09-18T09:06:09.444Z,20.59
2017-09-18T09:07:09.888Z,20.40
2017-09-18T09:08:10.356Z,20.50
2017-09-18T09:09:31.973Z,21.61
2017-09-18T09:10:11.276Z,21.11
2017-09-18T09:11:11.730Z,20.09
2017-09-18T09:12:12.177Z,18.98
2017-09-18T09:13:12.632Z,18.55
2017-09-18T09:14:13.085Z,18.19
2017-09-18T09:15:34.701Z,18.26
2017-09-18T09:16:13.995Z,18.38
2017-09-18T09:17:14.459Z,18.62
2017-09-18T09:18:14.889Z,18.28
2017-09-18T09:19:15.352Z,18.11
2017-09-18T09:20:15.793Z,19.15
2017-09-18T09:21:37.406Z,20.44
2017-09-18T09:22:16.688Z,21.42
2017-09-18T09:23:17.139Z,21.25
2017-09-18T09:24:17.580Z,21.79
2017-09-18T09:25:18.040Z,21.75
2017-09-18T09:26:18.493Z,21.70
2017-09-18T09:27:40.179Z,21.91
2017-09-18T09:28:19.391Z,21.46
2017-09-18T09:29:19.833Z,21.30
2017-09-18T09:30:20.281Z,21.60
2017-09-18T09:31:20.738Z,21.95
2017-09-18T09:32:21.174Z,23.39
2017-09-18T09:33:42.790Z,24.02
2017-09-18T09:34:22.076Z,24.40
2017-09-18T09:35:22.523Z,24.45
2017-09-18T09:36:22.982Z,23.37
2017-09-18T09:37:23.432Z,22.73
2017-09-18T09:38:23.877Z,20.31
2017-09-18T09:39:45.498Z,21.60
2017-09-18T09:40:24.802Z,22.51
2017-09-18T09:41:25.245Z,22.28
2017-09-18T09:42:25.695Z,20.07
2017-09-18T09:43:26.152Z,20.32
2017-09-18T09:44:26.612Z,20.97
2017-09-18T09:45:48.227Z,23.09
2017-09-18T09:46:27.507Z,24.30
2017-09-18T09:47:27.968Z,24.53
2017-09-18T09:48:28.425Z,25.21
2017-09-18T09:49:28.877Z,25.72
2017-09-18T09:50:29.332Z,26.09
2017-09-18T09:51:50.952Z,26.02
2017-09-18T09:52:30.241Z,26.19
2017-09-18T09:53:30.706Z,25.04
2017-09-18T09:54:31.150Z,24.03
2017-09-18T09:55:31.606Z,24.96
2017-09-18T09:56:32.059Z,23.56
2017-09-18T09:57:53.699Z,23.32
2017-09-18T09:58:32.967Z,24.14
2017-09-18T09:59:33.427Z,25.26
2017-09-18T10:00:33.895Z,25.78
2017-09-18T10:01:34.334Z,25.10
2017-09-18T10:02:34.783Z,26.45
2017-09-18T10:03:56.410Z,25.16
2017-09-18T10:04:35.696Z,25.88
2017-09-18T10:05:36.159Z,23.83
2017-09-18T10:06:36.616Z,24.17
2017-09-18T10:07:37.077Z,22.72
2017-09-18T10:08:37.534Z,21.14
2017-09-18T10:09:59.160Z,21.21
2017-09-18T10:10:38.454Z,21.12
2017-09-18T10:11:38.904Z,21.20
2017-09-18T10:12:39.367Z,22.63
2017-09-18T10:13:39.851Z,25.33
2017-09-18T10:14:40.283Z,27.05
2017-09-18T10:16:02.065Z,27.48
2017-09-18T10:16:41.304Z,26.84
2017-09-18T10:17:41.658Z,28.69
2017-09-18T10:18:42.173Z,26.70
2017-09-18T10:19:42.580Z,26.22
2017-09-18T10:20:43.048Z,24.86
2017-09-18T10:22:04.678Z,26.13
2017-09-18T10:22:43.968Z,25.07
2017-09-18T10:23:44.429Z,24.08
2017-09-18T10:24:44.895Z,23.47
2017-09-18T10:25:45.362Z,24.98
2017-09-18T10:26:45.815Z,24.23
2017-09-18T10:28:07.464Z,25.69
2017-09-18T10:28:46.747Z,27.90
2017-09-18T10:29:47.209Z,29.08
2017-09-18T10:30:47.670Z,29.16
2017-09-18T10:31:48.137Z,27.48
2017-09-18T10:32:48.605Z,26.16
2017-09-18T10:34:10.231Z,26.74
2017-09-18T10:34:49.516Z,24.39
2017-09-18T10:35:49.982Z,25.16
2017-09-18T10:36:50.441Z,27.00
2017-09-18T10:37:50.898Z,28.15
2017-09-18T10:38:51.363Z,29.14
2017-09-18T10:40:13.012Z,29.26
2017-09-18T10:40:52.281Z,29.73
2017-09-18T10:41:52.744Z,30.15
2017-09-18T10:42:53.198Z,27.14
2017-09-18T10:43:53.667Z,25.23
2017-09-18T10:44:54.128Z,24.02
2017-09-18T10:46:15.762Z,23.84
2017-09-18T10:46:55.051Z,25.18
2017-09-18T10:47:55.521Z,26.28
2017-09-18T10:48:55.989Z,27.51
2017-09-18T10:49:56.440Z,26.90
2017-09-18T10:50:56.898Z,28.05
2017-09-18T10:52:18.542Z,28.30
2017-09-18T10:52:57.827Z,28.86
2017-09-18T10:53:58.285Z,29.94
2017-09-18T10:54:58.755Z,28.79
2017-09-18T10:55:59.220Z,28.86
2017-09-18T10:56:59.684Z,28.49
2017-09-18T10:58:21.341Z,28.64
2017-09-18T10:59:00.604Z,29.19
2017-09-18T11:00:01.099Z,29.56
2017-09-18T11:01:01.536Z,29.22
2017-09-18T11:02:01.995Z,29.26
2017-09-18T11:03:02.461Z,30.19
2017-09-18T11:04:24.093Z,27.18
2017-09-18T11:05:03.388Z,26.22
2017-09-18T11:06:03.856Z,26.60
2017-09-18T11:07:04.313Z,27.35
2017-09-18T11:08:04.779Z,27.21
2017-09-18T11:09:05.256Z,27.52
2017-09-18T11:10:26.878Z,27.40
2017-09-18T11:11:06.172Z,26.05
2017-09-18T11:12:06.666Z,26.95
2017-09-18T11:13:07.107Z,29.44
2017-09-18T11:14:07.574Z,25.43
2017-09-18T11:15:08.030Z,28.30
2017-09-18T11:16:29.672Z,26.71
2017-09-18T11:17:08.966Z,22.65
2017-09-18T11:18:09.436Z,23.56
2017-09-18T11:19:09.893Z,23.68
2017-09-18T11:20:10.358Z,23.81
2017-09-18T11:21:10.822Z,22.98
2017-09-18T11:22:32.479Z,24.93
2017-09-18T11:23:11.762Z,25.99
2017-09-18T11:24:12.220Z,24.50
2017-09-18T11:25:12.687Z,26.06
2017-09-18T11:26:13.156Z,28.45
2017-09-18T11:27:13.628Z,28.27
2017-09-18T11:28:35.272Z,26.25
2017-09-18T11:29:14.546Z,26.68
2017-09-18T11:30:15.022Z,24.74
2017-09-18T11:31:15.486Z,23.80
2017-09-18T11:32:15.945Z,25.88
2017-09-18T11:33:16.412Z,24.76
2017-09-18T11:34:38.041Z,23.39
2017-09-18T11:35:17.349Z,22.22
2017-09-18T11:36:17.799Z,22.11
2017-09-18T11:37:18.265Z,21.92
2017-09-18T11:38:18.725Z,22.35
2017-09-18T11:39:19.184Z,20.19
2017-09-18T11:40:40.818Z,19.54
2017-09-18T11:41:20.115Z,20.36
2017-09-18T11:42:20.562Z,20.63
2017-09-18T11:43:21.018Z,20.63
2017-09-18T11:44:21.491Z,20.65
2017-09-18T11:45:21.935Z,20.19
2017-09-18T11:46:43.550Z,19.82
2017-09-18T11:47:22.835Z,19.73
2017-09-18T11:48:23.293Z,20.24
2017-09-18T11:49:23.751Z,20.88
2017-09-18T11:50:24.196Z,20.75
2017-09-18T11:51:24.642Z,19.73
2017-09-18T11:52:46.255Z,20.03
2017-09-18T11:53:25.543Z,19.81
2017-09-18T11:54:25.986Z,19.59
2017-09-18T11:55:26.427Z,20.11
2017-09-18T11:56:26.877Z,20.58
2017-09-18T11:57:27.334Z,21.03
2017-09-18T11:58:48.944Z,20.97
2017-09-18T11:59:28.230Z,21.02
2017-09-18T12:00:28.660Z,20.09
2017-09-18T12:01:29.114Z,20.10
2017-09-18T12:02:29.554Z,20.10
2017-09-18T12:03:29.995Z,19.94
2017-09-18T12:04:51.603Z,19.86
2017-09-18T12:05:30.889Z,19.45
2017-09-18T12:06:31.346Z,19.49
2017-09-18T12:07:31.775Z,19.84
2017-09-18T12:08:32.227Z,19.36
2017-09-18T12:09:32.656Z,19.34
2017-09-18T12:10:54.271Z,19.54
2017-09-18T12:11:33.543Z,19.99
2017-09-18T12:12:33.993Z,19.94
2017-09-18T12:13:34.436Z,20.02
2017-09-18T12:14:34.888Z,20.09
2017-09-18T12:15:35.318Z,20.00
2017-09-18T12:16:56.927Z,20.14
2017-09-18T12:17:36.207Z,19.56
2017-09-18T12:18:36.662Z,19.22
2017-09-18T12:19:37.089Z,19.70
2017-09-18T12:20:37.533Z,19.34
2017-09-18T12:21:37.982Z,19.16
2017-09-18T12:22:59.595Z,19.31
2017-09-18T12:23:38.858Z,19.52
2017-09-18T12:24:39.297Z,19.91
2017-09-18T12:25:39.738Z,19.71
2017-09-18T12:26:40.187Z,19.52
2017-09-18T12:27:40.621Z,19.51
2017-09-18T12:29:02.231Z,19.36
2017-09-18T12:29:41.508Z,19.52
2017-09-18T12:30:41.945Z,19.09
2017-09-18T12:31:42.388Z,18.84
2017-09-18T12:32:42.837Z,18.65
2017-09-18T12:33:43.277Z,18.44
2017-09-18T12:35:04.874Z,18.33
2017-09-18T12:35:44.161Z,18.80
2017-09-18T12:36:44.609Z,19.24
2017-09-18T12:37:45.037Z,19.24
2017-09-18T12:38:45.479Z,19.27
2017-09-18T12:39:45.924Z,19.45
2017-09-18T12:41:07.525Z,19.26
2017-09-18T12:41:46.799Z,19.22
2017-09-18T12:42:47.246Z,19.48
2017-09-18T12:43:47.709Z,18.93
2017-09-18T12:44:48.121Z,18.56
2017-09-18T12:45:48.564Z,18.31
2017-09-18T12:47:10.167Z,18.26
2017-09-18T12:47:49.448Z,18.22
2017-09-18T12:48:49.884Z,18.53
2017-09-18T12:49:50.323Z,18.63
2017-09-18T12:50:50.762Z,18.44
2017-09-18T12:51:51.214Z,18.86
2017-09-18T12:53:12.810Z,18.99
2017-09-18T12:53:52.090Z,19.02
2017-09-18T12:54:52.531Z,19.22
2017-09-18T12:55:52.977Z,18.81
2017-09-18T12:56:53.397Z,18.52
2017-09-18T12:57:53.842Z,18.81